sensor_id;sensor_type;location;lat;lon;timestamp;pressure;altitude;pressure_sealevel;temperature;humidity
81511;BME280;70931;48.796;8.440;2024-01-15T00:01:43;96247.16;;;-1.91;76.45
81511;BME280;70931;48.796;8.440;2024-01-15T00:04:08;96271.59;;;-1.58;76.29
81511;BME280;70931;48.796;8.440;2024-01-15T00:06:33;96264.22;;;-1.53;75.12
81511;BME280;70931;48.796;8.440;2024-01-15T00:08:58;96263.53;;;-1.66;75.45
81511;BME280;70931;48.796;8.440;2024-01-15T00:11:24;96255.44;;;-1.75;75.95
81511;BME280;70931;48.796;8.440;2024-01-15T00:13:49;96248.97;;;-1.37;74.52
81511;BME280;70931;48.796;8.440;2024-01-15T00:16:14;96255.19;;;-1.38;74.57
81511;BME280;70931;48.796;8.440;2024-01-15T00:18:39;96250.50;;;-1.35;74.91
81511;BME280;70931;48.796;8.440;2024-01-15T00:21:05;96254.59;;;-1.42;75.27
81511;BME280;70931;48.796;8.440;2024-01-15T00:23:30;96253.47;;;-1.28;74.80
81511;BME280;70931;48.796;8.440;2024-01-15T00:25:55;96244.94;;;-1.30;74.77
81511;BME280;70931;48.796;8.440;2024-01-15T00:28:21;96240.38;;;-1.17;73.85
81511;BME280;70931;48.796;8.440;2024-01-15T00:30:46;96241.09;;;-1.15;74.25
81511;BME280;70931;48.796;8.440;2024-01-15T00:33:11;96249.84;;;-1.05;73.74
81511;BME280;70931;48.796;8.440;2024-01-15T00:35:36;96233.44;;;-1.39;74.87
81511;BME280;70931;48.796;8.440;2024-01-15T00:38:02;96241.09;;;-1.26;74.31
81511;BME280;70931;48.796;8.440;2024-01-15T00:40:27;96230.56;;;-1.36;74.81
81511;BME280;70931;48.796;8.440;2024-01-15T00:42:52;96243.25;;;-1.31;74.44
81511;BME280;70931;48.796;8.440;2024-01-15T00:45:17;96249.72;;;-1.35;74.80
81511;BME280;70931;48.796;8.440;2024-01-15T00:47:43;96251.81;;;-1.18;74.46
81511;BME280;70931;48.796;8.440;2024-01-15T00:50:08;96253.22;;;-1.25;74.65
81511;BME280;70931;48.796;8.440;2024-01-15T00:52:33;96178.97;;;-1.77;75.57
81511;BME280;70931;48.796;8.440;2024-01-15T00:54:59;96249.72;;;-1.35;75.29
81511;BME280;70931;48.796;8.440;2024-01-15T00:57:24;96248.91;;;-1.47;75.68
81511;BME280;70931;48.796;8.440;2024-01-15T00:59:49;96259.19;;;-1.34;75.80
81511;BME280;70931;48.796;8.440;2024-01-15T01:02:14;96248.75;;;-1.34;75.29
81511;BME280;70931;48.796;8.440;2024-01-15T01:04:40;96233.34;;;-1.59;75.68
81511;BME280;70931;48.796;8.440;2024-01-15T01:07:05;96252.41;;;-1.26;75.73
81511;BME280;70931;48.796;8.440;2024-01-15T01:09:30;96253.25;;;-1.36;75.83
81511;BME280;70931;48.796;8.440;2024-01-15T01:11:56;96249.91;;;-1.27;75.51
81511;BME280;70931;48.796;8.440;2024-01-15T01:14:22;96255.50;;;-1.21;75.59
81511;BME280;70931;48.796;8.440;2024-01-15T01:16:47;96255.75;;;-1.35;76.31
81511;BME280;70931;48.796;8.440;2024-01-15T01:19:12;96251.25;;;-1.33;76.10
81511;BME280;70931;48.796;8.440;2024-01-15T01:21:37;96250.13;;;-1.19;75.40
81511;BME280;70931;48.796;8.440;2024-01-15T01:24:03;96245.22;;;-1.44;76.44
81511;BME280;70931;48.796;8.440;2024-01-15T01:26:28;96225.47;;;-1.48;76.34
81511;BME280;70931;48.796;8.440;2024-01-15T01:28:53;96250.31;;;-1.00;75.45
81511;BME280;70931;48.796;8.440;2024-01-15T01:31:19;96246.25;;;-0.93;74.76
81511;BME280;70931;48.796;8.440;2024-01-15T01:33:44;96240.47;;;-0.76;74.41
81511;BME280;70931;48.796;8.440;2024-01-15T01:36:09;96248.19;;;-0.74;73.80
81511;BME280;70931;48.796;8.440;2024-01-15T01:38:35;96242.66;;;-0.92;74.66
81511;BME280;70931;48.796;8.440;2024-01-15T01:41:01;96253.50;;;-0.96;74.57
81511;BME280;70931;48.796;8.440;2024-01-15T01:43:26;96256.38;;;-0.99;74.66
81511;BME280;70931;48.796;8.440;2024-01-15T01:45:51;96250.75;;;-1.27;75.88
81511;BME280;70931;48.796;8.440;2024-01-15T01:48:17;96248.47;;;-1.20;75.83
81511;BME280;70931;48.796;8.440;2024-01-15T01:50:42;96243.44;;;-1.01;75.13
81511;BME280;70931;48.796;8.440;2024-01-15T01:53:08;96243.84;;;-0.85;74.97
81511;BME280;70931;48.796;8.440;2024-01-15T01:55:34;96235.13;;;-1.17;75.37
81511;BME280;70931;48.796;8.440;2024-01-15T01:58:00;96240.81;;;-1.01;75.36
81511;BME280;70931;48.796;8.440;2024-01-15T02:00:25;96241.78;;;-1.13;75.99
81511;BME280;70931;48.796;8.440;2024-01-15T02:02:51;96237.00;;;-1.08;75.47
81511;BME280;70931;48.796;8.440;2024-01-15T02:05:18;96235.28;;;-1.19;75.67
81511;BME280;70931;48.796;8.440;2024-01-15T02:07:44;96221.47;;;-1.09;75.73
81511;BME280;70931;48.796;8.440;2024-01-15T02:10:09;96230.66;;;-0.94;74.95
81511;BME280;70931;48.796;8.440;2024-01-15T02:12:35;96226.94;;;-0.92;74.98
81511;BME280;70931;48.796;8.440;2024-01-15T02:15:00;96223.03;;;-0.86;74.92
81511;BME280;70931;48.796;8.440;2024-01-15T02:17:25;96220.41;;;-0.66;74.31
81511;BME280;70931;48.796;8.440;2024-01-15T02:19:50;96217.16;;;-0.79;74.96
81511;BME280;70931;48.796;8.440;2024-01-15T02:22:16;96210.06;;;-0.88;75.41
81511;BME280;70931;48.796;8.440;2024-01-15T02:24:41;96208.13;;;-0.86;74.92
81511;BME280;70931;48.796;8.440;2024-01-15T02:27:07;96213.22;;;-1.05;75.51
81511;BME280;70931;48.796;8.440;2024-01-15T02:29:32;96207.06;;;-1.04;75.58
81511;BME280;70931;48.796;8.440;2024-01-15T02:31:58;96219.75;;;-0.99;75.43
81511;BME280;70931;48.796;8.440;2024-01-15T02:34:23;96217.63;;;-1.05;76.04
81511;BME280;70931;48.796;8.440;2024-01-15T02:36:48;96208.53;;;-0.90;75.63
81511;BME280;70931;48.796;8.440;2024-01-15T02:39:13;96203.16;;;-0.89;76.04
81511;BME280;70931;48.796;8.440;2024-01-15T02:41:39;96199.75;;;-1.21;77.10
81511;BME280;70931;48.796;8.440;2024-01-15T02:44:04;96210.50;;;-1.35;77.90
81511;BME280;70931;48.796;8.440;2024-01-15T02:46:29;96201.53;;;-1.22;77.46
81511;BME280;70931;48.796;8.440;2024-01-15T02:48:54;96196.63;;;-1.15;77.11
81511;BME280;70931;48.796;8.440;2024-01-15T02:51:20;96204.75;;;-0.97;76.28
81511;BME280;70931;48.796;8.440;2024-01-15T02:53:45;96204.97;;;-0.89;76.01
81511;BME280;70931;48.796;8.440;2024-01-15T02:56:10;96202.16;;;-0.77;76.13
81511;BME280;70931;48.796;8.440;2024-01-15T02:58:35;96191.50;;;-1.17;77.23
81511;BME280;70931;48.796;8.440;2024-01-15T03:01:01;96205.81;;;-1.00;76.64
81511;BME280;70931;48.796;8.440;2024-01-15T03:03:26;96194.72;;;-1.13;77.49
81511;BME280;70931;48.796;8.440;2024-01-15T03:05:51;96200.69;;;-1.22;77.97
81511;BME280;70931;48.796;8.440;2024-01-15T03:08:16;96209.66;;;-1.04;77.63
81511;BME280;70931;48.796;8.440;2024-01-15T03:10:41;96214.66;;;-1.01;77.95
81511;BME280;70931;48.796;8.440;2024-01-15T03:13:07;96198.94;;;-1.33;78.79
81511;BME280;70931;48.796;8.440;2024-01-15T03:15:32;96196.38;;;-1.12;78.26
81511;BME280;70931;48.796;8.440;2024-01-15T03:17:57;96201.88;;;-1.26;78.38
81511;BME280;70931;48.796;8.440;2024-01-15T03:20:22;96203.75;;;-1.17;78.50
81511;BME280;70931;48.796;8.440;2024-01-15T03:22:47;96190.22;;;-0.90;77.31
81511;BME280;70931;48.796;8.440;2024-01-15T03:25:13;96186.81;;;-1.02;77.46
81511;BME280;70931;48.796;8.440;2024-01-15T03:27:38;96196.56;;;-0.72;76.99
81511;BME280;70931;48.796;8.440;2024-01-15T03:30:03;96200.59;;;-1.00;77.44
81511;BME280;70931;48.796;8.440;2024-01-15T03:32:29;96195.44;;;-0.90;77.36
81511;BME280;70931;48.796;8.440;2024-01-15T03:34:54;96186.94;;;-0.83;76.63
81511;BME280;70931;48.796;8.440;2024-01-15T03:37:19;96183.31;;;-0.71;76.40
81511;BME280;70931;48.796;8.440;2024-01-15T03:39:45;96176.47;;;-0.41;75.91
81511;BME280;70931;48.796;8.440;2024-01-15T03:42:10;96178.59;;;-0.35;75.57
81511;BME280;70931;48.796;8.440;2024-01-15T03:44:35;96179.28;;;-0.54;75.92
81511;BME280;70931;48.796;8.440;2024-01-15T03:47:00;96183.75;;;-0.66;76.39
81511;BME280;70931;48.796;8.440;2024-01-15T03:49:26;96179.78;;;-0.39;75.22
81511;BME280;70931;48.796;8.440;2024-01-15T03:51:51;96182.56;;;-0.62;75.76
81511;BME280;70931;48.796;8.440;2024-01-15T03:54:16;96178.78;;;-0.69;76.42
81511;BME280;70931;48.796;8.440;2024-01-15T03:56:41;96111.13;;;-0.73;75.50
81511;BME280;70931;48.796;8.440;2024-01-15T03:59:07;96149.94;;;-0.57;75.59
81511;BME280;70931;48.796;8.440;2024-01-15T04:01:32;96168.44;;;-0.91;77.53
81511;BME280;70931;48.796;8.440;2024-01-15T04:03:57;96155.22;;;-0.69;76.63
81511;BME280;70931;48.796;8.440;2024-01-15T04:06:22;96159.06;;;-0.52;75.94
81511;BME280;70931;48.796;8.440;2024-01-15T04:08:47;96152.84;;;-0.51;76.12
81511;BME280;70931;48.796;8.440;2024-01-15T04:11:13;96158.75;;;-0.59;76.56
81511;BME280;70931;48.796;8.440;2024-01-15T04:13:38;96146.91;;;-0.53;76.32
81511;BME280;70931;48.796;8.440;2024-01-15T04:16:03;96142.59;;;-0.33;75.76
81511;BME280;70931;48.796;8.440;2024-01-15T04:18:29;96133.28;;;-0.26;74.93
81511;BME280;70931;48.796;8.440;2024-01-15T04:20:54;96126.16;;;-0.15;74.79
81511;BME280;70931;48.796;8.440;2024-01-15T04:23:19;96117.72;;;-0.48;75.06
81511;BME280;70931;48.796;8.440;2024-01-15T04:25:44;96136.50;;;-0.43;75.53
81511;BME280;70931;48.796;8.440;2024-01-15T04:28:10;96140.38;;;-0.38;76.22
81511;BME280;70931;48.796;8.440;2024-01-15T04:30:35;96135.84;;;-0.36;75.78
81511;BME280;70931;48.796;8.440;2024-01-15T04:33:00;96134.25;;;-0.48;76.08
81511;BME280;70931;48.796;8.440;2024-01-15T04:35:26;96135.44;;;-0.31;75.69
81511;BME280;70931;48.796;8.440;2024-01-15T04:37:51;96127.09;;;-0.46;75.93
81511;BME280;70931;48.796;8.440;2024-01-15T04:40:17;96131.44;;;-0.35;75.78
81511;BME280;70931;48.796;8.440;2024-01-15T04:42:42;96132.13;;;-0.33;76.06
81511;BME280;70931;48.796;8.440;2024-01-15T04:45:07;96134.66;;;-0.22;75.33
81511;BME280;70931;48.796;8.440;2024-01-15T04:47:33;96134.31;;;-0.38;75.21
81511;BME280;70931;48.796;8.440;2024-01-15T04:49:58;96131.19;;;-0.32;75.48
81511;BME280;70931;48.796;8.440;2024-01-15T04:52:23;96134.06;;;-0.35;76.45
81511;BME280;70931;48.796;8.440;2024-01-15T04:54:48;96130.88;;;-0.60;76.26
81511;BME280;70931;48.796;8.440;2024-01-15T04:57:13;96120.31;;;-0.58;76.39
81511;BME280;70931;48.796;8.440;2024-01-15T04:59:39;96129.00;;;-0.57;76.28
81511;BME280;70931;48.796;8.440;2024-01-15T05:02:04;96115.97;;;-0.69;76.89
81511;BME280;70931;48.796;8.440;2024-01-15T05:04:29;96123.25;;;-0.42;75.96
81511;BME280;70931;48.796;8.440;2024-01-15T05:06:55;96099.75;;;-0.32;75.63
81511;BME280;70931;48.796;8.440;2024-01-15T05:09:20;96113.06;;;-0.45;76.15
81511;BME280;70931;48.796;8.440;2024-01-15T05:11:45;96118.19;;;-0.43;75.37
81511;BME280;70931;48.796;8.440;2024-01-15T05:14:10;96118.59;;;-0.38;75.59
81511;BME280;70931;48.796;8.440;2024-01-15T05:16:38;96109.59;;;-0.15;74.40
81511;BME280;70931;48.796;8.440;2024-01-15T05:19:03;96041.56;;;-0.76;75.15
81511;BME280;70931;48.796;8.440;2024-01-15T05:21:29;96114.47;;;-0.41;75.30
81511;BME280;70931;48.796;8.440;2024-01-15T05:23:54;96109.28;;;-0.22;74.90
81511;BME280;70931;48.796;8.440;2024-01-15T05:26:19;96103.53;;;-0.16;74.77
81511;BME280;70931;48.796;8.440;2024-01-15T05:28:44;96099.34;;;-0.28;74.77
81511;BME280;70931;48.796;8.440;2024-01-15T05:31:09;96106.88;;;-0.04;73.62
81511;BME280;70931;48.796;8.440;2024-01-15T05:33:35;96102.50;;;0.16;74.00
81511;BME280;70931;48.796;8.440;2024-01-15T05:36:00;96086.22;;;0.03;73.47
81511;BME280;70931;48.796;8.440;2024-01-15T05:38:25;96093.53;;;0.09;73.10
81511;BME280;70931;48.796;8.440;2024-01-15T05:40:51;96091.03;;;0.07;72.95
81511;BME280;70931;48.796;8.440;2024-01-15T05:43:16;96089.53;;;-0.35;73.77
81511;BME280;70931;48.796;8.440;2024-01-15T05:45:43;96079.59;;;0.08;72.54
81511;BME280;70931;48.796;8.440;2024-01-15T05:48:08;96085.25;;;0.13;72.17
81511;BME280;70931;48.796;8.440;2024-01-15T05:50:33;96084.31;;;0.24;72.88
81511;BME280;70931;48.796;8.440;2024-01-15T05:52:58;96078.78;;;0.27;72.50
81511;BME280;70931;48.796;8.440;2024-01-15T05:55:24;96076.31;;;0.25;71.96
81511;BME280;70931;48.796;8.440;2024-01-15T05:57:49;96065.50;;;0.09;71.69
81511;BME280;70931;48.796;8.440;2024-01-15T06:00:15;96071.06;;;0.25;71.30
81511;BME280;70931;48.796;8.440;2024-01-15T06:02:40;96056.16;;;0.16;72.76
81511;BME280;70931;48.796;8.440;2024-01-15T06:05:06;96054.91;;;0.11;73.76
81511;BME280;70931;48.796;8.440;2024-01-15T06:07:32;96053.81;;;0.13;73.42
81511;BME280;70931;48.796;8.440;2024-01-15T06:09:57;96075.66;;;-0.26;73.52
81511;BME280;70931;48.796;8.440;2024-01-15T06:12:23;96053.88;;;-0.17;71.65
81511;BME280;70931;48.796;8.440;2024-01-15T06:14:48;96073.78;;;0.05;71.38
81511;BME280;70931;48.796;8.440;2024-01-15T06:17:13;96071.03;;;0.06;71.98
81511;BME280;70931;48.796;8.440;2024-01-15T06:19:38;96066.75;;;0.05;71.76
81511;BME280;70931;48.796;8.440;2024-01-15T06:22:04;96071.28;;;-0.07;72.21
81511;BME280;70931;48.796;8.440;2024-01-15T06:24:29;96073.00;;;0.14;71.77
81511;BME280;70931;48.796;8.440;2024-01-15T06:26:54;96076.84;;;0.19;72.00
81511;BME280;70931;48.796;8.440;2024-01-15T06:29:19;96067.72;;;0.04;70.58
81511;BME280;70931;48.796;8.440;2024-01-15T06:31:44;96067.59;;;0.15;71.59
81511;BME280;70931;48.796;8.440;2024-01-15T06:34:10;96061.41;;;0.16;72.92
81511;BME280;70931;48.796;8.440;2024-01-15T06:36:35;96065.63;;;-0.02;73.71
81511;BME280;70931;48.796;8.440;2024-01-15T06:39:00;96070.22;;;0.06;73.56
81511;BME280;70931;48.796;8.440;2024-01-15T06:41:25;96065.50;;;0.09;73.23
81511;BME280;70931;48.796;8.440;2024-01-15T06:43:51;96054.47;;;-0.04;73.49
81511;BME280;70931;48.796;8.440;2024-01-15T06:46:22;96064.69;;;-0.01;73.94
81511;BME280;70931;48.796;8.440;2024-01-15T06:48:48;96058.53;;;-0.30;74.40
81511;BME280;70931;48.796;8.440;2024-01-15T06:51:13;96055.50;;;-0.35;73.88
81511;BME280;70931;48.796;8.440;2024-01-15T06:53:39;96059.09;;;-0.17;70.77
81511;BME280;70931;48.796;8.440;2024-01-15T06:56:04;96054.84;;;-0.18;70.05
81511;BME280;70931;48.796;8.440;2024-01-15T06:58:32;96040.66;;;-0.16;72.73
81511;BME280;70931;48.796;8.440;2024-01-15T07:00:58;96046.06;;;0.02;72.64
81511;BME280;70931;48.796;8.440;2024-01-15T07:03:23;96041.50;;;0.04;72.11
81511;BME280;70931;48.796;8.440;2024-01-15T07:05:48;96043.56;;;-0.09;73.48
81511;BME280;70931;48.796;8.440;2024-01-15T07:08:13;96023.25;;;-0.26;73.93
81511;BME280;70931;48.796;8.440;2024-01-15T07:10:39;96045.78;;;0.05;73.46
81511;BME280;70931;48.796;8.440;2024-01-15T07:13:04;96048.97;;;-0.01;73.57
81511;BME280;70931;48.796;8.440;2024-01-15T07:15:29;96061.44;;;-0.24;73.98
81511;BME280;70931;48.796;8.440;2024-01-15T07:17:54;96046.75;;;0.04;72.21
81511;BME280;70931;48.796;8.440;2024-01-15T07:20:20;96055.28;;;-0.13;73.02
81511;BME280;70931;48.796;8.440;2024-01-15T07:22:45;96051.97;;;-0.15;73.21
81511;BME280;70931;48.796;8.440;2024-01-15T07:25:10;96059.53;;;-0.22;73.26
81511;BME280;70931;48.796;8.440;2024-01-15T07:27:35;96049.25;;;0.06;73.23
81511;BME280;70931;48.796;8.440;2024-01-15T07:30:00;96059.56;;;-0.12;73.65
81511;BME280;70931;48.796;8.440;2024-01-15T07:32:26;96058.38;;;0.11;73.30
81511;BME280;70931;48.796;8.440;2024-01-15T07:34:51;96062.22;;;0.07;72.98
81511;BME280;70931;48.796;8.440;2024-01-15T07:37:16;96061.38;;;0.07;73.54
81511;BME280;70931;48.796;8.440;2024-01-15T07:39:41;96051.00;;;-0.05;73.19
81511;BME280;70931;48.796;8.440;2024-01-15T07:42:07;96037.34;;;-0.08;70.36
81511;BME280;70931;48.796;8.440;2024-01-15T07:44:32;96066.38;;;0.19;69.35
81511;BME280;70931;48.796;8.440;2024-01-15T07:46:57;96076.31;;;0.35;68.15
81511;BME280;70931;48.796;8.440;2024-01-15T07:49:23;96084.31;;;0.33;68.28
81511;BME280;70931;48.796;8.440;2024-01-15T07:51:48;96077.94;;;0.26;68.63
81511;BME280;70931;48.796;8.440;2024-01-15T07:54:13;96084.31;;;0.24;68.90
81511;BME280;70931;48.796;8.440;2024-01-15T07:56:57;96079.19;;;0.32;69.69
81511;BME280;70931;48.796;8.440;2024-01-15T07:59:23;96071.03;;;0.06;69.58
81511;BME280;70931;48.796;8.440;2024-01-15T08:01:48;96075.22;;;0.28;68.54
81511;BME280;70931;48.796;8.440;2024-01-15T08:04:14;96077.97;;;0.36;67.67
81511;BME280;70931;48.796;8.440;2024-01-15T08:06:39;96076.59;;;0.41;68.89
81511;BME280;70931;48.796;8.440;2024-01-15T08:09:04;96082.09;;;0.29;70.42
81511;BME280;70931;48.796;8.440;2024-01-15T08:11:29;96086.97;;;0.43;68.49
81511;BME280;70931;48.796;8.440;2024-01-15T08:13:55;96076.88;;;0.57;68.05
81511;BME280;70931;48.796;8.440;2024-01-15T08:16:20;96075.75;;;0.41;68.73
81511;BME280;70931;48.796;8.440;2024-01-15T08:18:45;96072.88;;;0.53;68.55
81511;BME280;70931;48.796;8.440;2024-01-15T08:21:10;96066.66;;;0.35;68.73
81511;BME280;70931;48.796;8.440;2024-01-15T08:23:35;96068.31;;;0.36;69.57
81511;BME280;70931;48.796;8.440;2024-01-15T08:26:01;96063.63;;;0.30;69.43
81511;BME280;70931;48.796;8.440;2024-01-15T08:28:26;96063.34;;;0.33;69.67
81511;BME280;70931;48.796;8.440;2024-01-15T08:30:51;96060.03;;;0.31;70.30
81511;BME280;70931;48.796;8.440;2024-01-15T08:33:16;96055.63;;;0.41;71.04
81511;BME280;70931;48.796;8.440;2024-01-15T08:35:42;96057.00;;;0.45;70.62
81511;BME280;70931;48.796;8.440;2024-01-15T08:38:07;96058.53;;;0.48;70.71
81511;BME280;70931;48.796;8.440;2024-01-15T08:40:32;96052.88;;;0.62;70.36
81511;BME280;70931;48.796;8.440;2024-01-15T08:42:57;96061.03;;;0.69;69.88
81511;BME280;70931;48.796;8.440;2024-01-15T08:45:23;96076.88;;;0.38;70.84
81511;BME280;70931;48.796;8.440;2024-01-15T08:47:48;96053.94;;;0.12;72.26
81511;BME280;70931;48.796;8.440;2024-01-15T08:50:13;96053.50;;;0.07;72.15
81511;BME280;70931;48.796;8.440;2024-01-15T08:52:38;96040.97;;;0.10;72.06
81511;BME280;70931;48.796;8.440;2024-01-15T08:55:04;96037.94;;;0.43;71.36
81511;BME280;70931;48.796;8.440;2024-01-15T08:57:29;96036.88;;;0.46;71.23
81511;BME280;70931;48.796;8.440;2024-01-15T08:59:54;96060.72;;;0.33;71.29
81511;BME280;70931;48.796;8.440;2024-01-15T09:02:19;96052.59;;;0.55;70.67
81511;BME280;70931;48.796;8.440;2024-01-15T09:04:44;96043.47;;;0.60;70.41
81511;BME280;70931;48.796;8.440;2024-01-15T09:07:10;96042.22;;;0.64;70.30
81511;BME280;70931;48.796;8.440;2024-01-15T09:09:35;96040.16;;;0.77;69.79
81511;BME280;70931;48.796;8.440;2024-01-15T09:12:00;96040.38;;;1.02;69.28
81511;BME280;70931;48.796;8.440;2024-01-15T09:14:25;96046.19;;;0.87;69.13
81511;BME280;70931;48.796;8.440;2024-01-15T09:16:51;96053.25;;;0.96;69.02
81511;BME280;70931;48.796;8.440;2024-01-15T09:19:16;96040.44;;;0.74;69.42
81511;BME280;70931;48.796;8.440;2024-01-15T09:21:41;96042.94;;;0.56;70.26
81511;BME280;70931;48.796;8.440;2024-01-15T09:24:06;96044.56;;;0.76;69.95
81511;BME280;70931;48.796;8.440;2024-01-15T09:26:31;96038.78;;;0.63;69.52
81511;BME280;70931;48.796;8.440;2024-01-15T09:28:57;96053.56;;;0.45;70.16
81511;BME280;70931;48.796;8.440;2024-01-15T09:31:22;96039.06;;;0.50;71.14
81511;BME280;70931;48.796;8.440;2024-01-15T09:33:49;96029.56;;;0.40;71.29
81511;BME280;70931;48.796;8.440;2024-01-15T09:36:14;95998.75;;;0.04;70.95
81511;BME280;70931;48.796;8.440;2024-01-15T09:38:40;96029.66;;;0.29;71.31
81511;BME280;70931;48.796;8.440;2024-01-15T09:41:05;96026.34;;;0.55;70.92
81511;BME280;70931;48.796;8.440;2024-01-15T09:43:31;96026.03;;;0.78;70.13
81511;BME280;70931;48.796;8.440;2024-01-15T09:45:57;96026.31;;;0.94;70.39
81511;BME280;70931;48.796;8.440;2024-01-15T09:48:22;96017.63;;;0.84;70.11
81511;BME280;70931;48.796;8.440;2024-01-15T09:50:47;96014.81;;;0.95;71.98
81511;BME280;70931;48.796;8.440;2024-01-15T09:53:14;95984.66;;;0.72;70.53
81511;BME280;70931;48.796;8.440;2024-01-15T09:55:41;95996.16;;;0.98;70.75
81511;BME280;70931;48.796;8.440;2024-01-15T09:58:06;96004.97;;;1.06;70.35
81511;BME280;70931;48.796;8.440;2024-01-15T10:00:33;96006.72;;;0.79;70.23
81511;BME280;70931;48.796;8.440;2024-01-15T10:02:59;96008.34;;;0.99;71.09
81511;BME280;70931;48.796;8.440;2024-01-15T10:05:24;95998.22;;;1.04;70.62
81511;BME280;70931;48.796;8.440;2024-01-15T10:07:50;96007.94;;;0.94;72.27
81511;BME280;70931;48.796;8.440;2024-01-15T10:10:16;95992.38;;;0.64;71.99
81511;BME280;70931;48.796;8.440;2024-01-15T10:12:42;95994.81;;;0.94;71.22
81511;BME280;70931;48.796;8.440;2024-01-15T10:15:10;96007.03;;;0.56;73.12
81511;BME280;70931;48.796;8.440;2024-01-15T10:17:37;95996.78;;;0.73;73.74
81511;BME280;70931;48.796;8.440;2024-01-15T10:20:02;95997.38;;;0.47;75.96
81511;BME280;70931;48.796;8.440;2024-01-15T10:22:27;96007.13;;;0.84;74.83
81511;BME280;70931;48.796;8.440;2024-01-15T10:24:53;95985.75;;;0.69;75.80
81511;BME280;70931;48.796;8.440;2024-01-15T10:27:18;95991.66;;;0.81;75.34
81511;BME280;70931;48.796;8.440;2024-01-15T10:29:43;95979.91;;;0.94;76.36
81511;BME280;70931;48.796;8.440;2024-01-15T10:32:09;95972.97;;;1.03;75.23
81511;BME280;70931;48.796;8.440;2024-01-15T10:34:38;95961.44;;;0.67;77.44
81511;BME280;70931;48.796;8.440;2024-01-15T10:37:03;95957.59;;;0.52;77.93
81511;BME280;70931;48.796;8.440;2024-01-15T10:39:29;95943.41;;;0.35;79.52
81511;BME280;70931;48.796;8.440;2024-01-15T10:41:54;95957.09;;;0.48;78.62
81511;BME280;70931;48.796;8.440;2024-01-15T10:44:19;95930.31;;;0.35;78.80
81511;BME280;70931;48.796;8.440;2024-01-15T10:46:45;95906.31;;;0.40;77.85
81511;BME280;70931;48.796;8.440;2024-01-15T10:49:14;95935.81;;;0.51;76.78
81511;BME280;70931;48.796;8.440;2024-01-15T10:51:39;95950.09;;;0.86;76.50
81511;BME280;70931;48.796;8.440;2024-01-15T10:54:05;95950.03;;;0.49;76.99
81511;BME280;70931;48.796;8.440;2024-01-15T10:56:32;95952.91;;;0.55;77.69
81511;BME280;70931;48.796;8.440;2024-01-15T10:58:57;95953.88;;;0.64;77.30
81511;BME280;70931;48.796;8.440;2024-01-15T11:01:23;95964.22;;;0.66;78.80
81511;BME280;70931;48.796;8.440;2024-01-15T11:03:49;95958.97;;;0.66;79.71
81511;BME280;70931;48.796;8.440;2024-01-15T11:06:18;95961.78;;;0.16;80.66
81511;BME280;70931;48.796;8.440;2024-01-15T11:08:43;95977.22;;;0.29;79.98
81511;BME280;70931;48.796;8.440;2024-01-15T11:11:09;95957.94;;;0.11;80.39
81511;BME280;70931;48.796;8.440;2024-01-15T11:18:30;95966.59;;;0.49;79.52
81511;BME280;70931;48.796;8.440;2024-01-15T11:21:25;95958.75;;;0.40;80.65
81511;BME280;70931;48.796;8.440;2024-01-15T11:29:02;95958.06;;;0.28;81.13
81511;BME280;70931;48.796;8.440;2024-01-15T11:33:53;95948.78;;;0.43;81.33
81511;BME280;70931;48.796;8.440;2024-01-15T11:36:19;95940.56;;;0.19;82.15
81511;BME280;70931;48.796;8.440;2024-01-15T11:38:44;95948.94;;;0.32;82.47
81511;BME280;70931;48.796;8.440;2024-01-15T11:41:16;95950.69;;;0.61;81.82
81511;BME280;70931;48.796;8.440;2024-01-15T11:43:41;95959.84;;;0.28;82.37
81511;BME280;70931;48.796;8.440;2024-01-15T11:46:11;95961.78;;;0.35;81.40
81511;BME280;70931;48.796;8.440;2024-01-15T11:48:43;95964.94;;;0.29;82.80
81511;BME280;70931;48.796;8.440;2024-01-15T11:51:11;95971.84;;;0.30;82.14
81511;BME280;70931;48.796;8.440;2024-01-15T11:53:43;95963.72;;;0.43;82.11
81511;BME280;70931;48.796;8.440;2024-01-15T11:56:14;95971.94;;;0.57;82.15
81511;BME280;70931;48.796;8.440;2024-01-15T11:58:40;95972.38;;;0.43;82.75
81511;BME280;70931;48.796;8.440;2024-01-15T12:01:05;95975.19;;;0.23;83.07
81511;BME280;70931;48.796;8.440;2024-01-15T12:03:32;95995.28;;;0.03;84.11
81511;BME280;70931;48.796;8.440;2024-01-15T12:05:58;95971.03;;;0.20;84.17
81511;BME280;70931;48.796;8.440;2024-01-15T12:08:23;95977.22;;;0.10;84.33
81511;BME280;70931;48.796;8.440;2024-01-15T12:10:48;95968.16;;;0.14;84.63
81511;BME280;70931;48.796;8.440;2024-01-15T12:13:14;95965.63;;;-0.17;85.92
81511;BME280;70931;48.796;8.440;2024-01-15T12:15:44;95983.84;;;-0.15;87.12
81511;BME280;70931;48.796;8.440;2024-01-15T12:18:12;95966.59;;;-0.08;86.12
81511;BME280;70931;48.796;8.440;2024-01-15T12:20:39;95979.56;;;-0.16;85.17
81511;BME280;70931;48.796;8.440;2024-01-15T12:23:05;95978.75;;;-0.07;87.03
81511;BME280;70931;48.796;8.440;2024-01-15T12:25:31;95986.19;;;0.07;87.02
81511;BME280;70931;48.796;8.440;2024-01-15T12:27:58;95986.34;;;0.34;86.02
81511;BME280;70931;48.796;8.440;2024-01-15T12:30:23;95981.50;;;0.20;85.84
81511;BME280;70931;48.796;8.440;2024-01-15T12:32:48;95975.19;;;0.13;86.41
81511;BME280;70931;48.796;8.440;2024-01-15T12:35:14;95991.72;;;0.04;85.70
81511;BME280;70931;48.796;8.440;2024-01-15T12:37:40;95970.34;;;-0.01;85.75
81511;BME280;70931;48.796;8.440;2024-01-15T12:40:09;95982.50;;;0.19;84.52
81511;BME280;70931;48.796;8.440;2024-01-15T12:42:44;95994.06;;;0.45;84.58
81511;BME280;70931;48.796;8.440;2024-01-15T12:45:11;95983.53;;;0.74;83.13
81511;BME280;70931;48.796;8.440;2024-01-15T12:47:37;95976.94;;;0.41;83.58
81511;BME280;70931;48.796;8.440;2024-01-15T12:50:06;95983.03;;;0.51;83.25
81511;BME280;70931;48.796;8.440;2024-01-15T12:52:32;95975.56;;;0.37;84.00
81511;BME280;70931;48.796;8.440;2024-01-15T12:54:57;95983.56;;;0.26;84.54
81511;BME280;70931;48.796;8.440;2024-01-15T12:57:22;95989.25;;;0.31;84.74
81511;BME280;70931;48.796;8.440;2024-01-15T12:59:48;95971.16;;;0.09;84.74
81511;BME280;70931;48.796;8.440;2024-01-15T13:02:14;95985.25;;;0.08;84.75
81511;BME280;70931;48.796;8.440;2024-01-15T13:04:39;96004.84;;;0.42;84.77
81511;BME280;70931;48.796;8.440;2024-01-15T13:07:06;95926.47;;;0.01;84.22
81511;BME280;70931;48.796;8.440;2024-01-15T13:09:31;95997.94;;;0.41;84.35